Time;durP1;ratioP1;P1;durP2;ratioP2;P2;SDS_P1;SDS_P2;PMS_P1;PMS_P2;Temp;Humidity;BMP_temperature;BMP_pressure;BME280_temperature;BME280_humidity;BME280_pressure;Samples;Min_cycle;Max_cycle;Signal;HPM_P1;HPM_P2
2021/06/02 00:02:11;;;;;;;0.00;0.00;;;;;;;8.39;85.91;101959.66;10510853;28;20107;-66
2021/06/02 00:07:15;;;;;;;0.00;0.00;;;;;;;8.30;86.63;101962.13;10521976;28;20043;-66
2021/06/02 00:12:16;;;;;;;0.00;0.00;;;;;;;8.30;88.05;101954.19;10485015;28;20020;-66
2021/06/02 00:17:17;;;;;;;0.10;0.10;;;;;;;8.32;87.08;101962.84;10527113;28;20024;-65
2021/06/02 00:22:18;;;;;;;0.00;0.00;;;;;;;8.24;86.41;101954.66;10524813;28;20111;-66
2021/06/02 00:27:18;;;;;;;0.00;0.00;;;;;;;8.12;86.73;101953.78;10504334;28;20025;-65
2021/06/02 00:32:20;;;;;;;0.00;0.00;;;;;;;8.10;86.19;101956.53;10510759;28;20092;-66
2021/06/02 00:37:22;;;;;;;0.00;0.00;;;;;;;8.02;86.37;101956.25;10501978;28;20493;-66
2021/06/02 00:42:29;;;;;;;0.00;0.00;;;;;;;7.97;87.20;101953.13;10517300;28;20463;-66
2021/06/02 00:47:30;;;;;;;0.00;0.00;;;;;;;7.89;86.52;101953.69;10502963;28;20391;-66
2021/06/02 00:52:30;;;;;;;0.00;0.00;;;;;;;7.80;86.78;101958.81;10501667;28;20035;-66
2021/06/02 00:57:31;;;;;;;0.03;0.03;;;;;;;7.77;87.06;101959.06;10517760;28;20094;-66
2021/06/02 01:02:35;;;;;;;0.00;0.00;;;;;;;7.77;87.01;101956.41;10513405;28;20265;-66
2021/06/02 01:07:38;;;;;;;0.10;0.10;;;;;;;7.74;87.15;101961.91;10491408;28;20111;-66
2021/06/02 01:12:40;;;;;;;0.00;0.00;;;;;;;7.74;87.55;101962.78;10511815;28;20024;-65
2021/06/02 01:17:41;;;;;;;0.10;0.10;;;;;;;7.75;87.37;101968.91;10531922;28;20036;-66
2021/06/02 01:22:42;;;;;;;0.00;0.00;;;;;;;7.70;87.52;101964.78;10520505;28;20088;-66
2021/06/02 01:27:44;;;;;;;0.00;0.00;;;;;;;7.58;87.26;101964.84;10521611;28;20510;-67
2021/06/02 01:32:56;;;;;;;0.00;0.00;;;;;;;7.53;87.46;101966.97;10507316;28;20016;-66
2021/06/02 01:38:25;;;;;;;0.00;0.00;;;;;;;7.48;87.57;101962.03;10501505;28;20565;-66
2021/06/02 01:44:10;;;;;;;0.00;0.00;;;;;;;7.51;87.53;101966.25;10529312;28;20016;-66
2021/06/02 01:49:35;;;;;;;0.00;0.00;;;;;;;7.57;89.23;101965.81;10518955;28;20032;-65
2021/06/02 01:54:51;;;;;;;0.00;0.00;;;;;;;7.62;88.70;101967.19;10514903;28;20024;-65
2021/06/02 02:00:08;;;;;;;0.00;0.00;;;;;;;7.53;88.12;101970.47;10517427;28;20039;-66
2021/06/02 02:05:14;;;;;;;0.00;0.00;;;;;;;7.44;88.60;101965.84;10503661;28;20051;-66
2021/06/02 02:10:40;;;;;;;0.00;0.00;;;;;;;7.36;88.67;101962.88;10524030;28;20067;-65
2021/06/02 02:15:56;;;;;;;0.00;0.00;;;;;;;7.33;89.31;101963.97;10511854;28;20028;-66
2021/06/02 02:21:03;;;;;;;0.03;0.03;;;;;;;7.33;89.20;101969.28;10527047;28;20020;-66
2021/06/02 02:26:46;;;;;;;0.05;0.05;;;;;;;7.32;89.45;101967.56;10519949;28;20544;-66
2021/06/02 02:32:17;;;;;;;0.00;0.00;;;;;;;7.29;89.26;101962.50;10507460;28;20043;-66
2021/06/02 02:37:59;;;;;;;0.00;0.00;;;;;;;7.28;89.21;101963.47;10515616;28;20035;-66
2021/06/02 02:43:10;;;;;;;0.00;0.00;;;;;;;7.29;89.03;101969.59;10504982;28;20109;-66
2021/06/02 02:48:43;;;;;;;0.00;0.00;;;;;;;7.22;89.46;101970.03;10514963;28;20046;-66
2021/06/02 02:53:43;;;;;;;0.00;0.00;;;;;;;7.25;89.35;101979.59;10457652;28;20074;-66
2021/06/02 02:58:56;;;;;;;0.00;0.00;;;;;;;7.15;88.89;101974.06;10501684;28;20497;-66
2021/06/02 03:04:23;;;;;;;0.00;0.00;;;;;;;7.11;89.41;101974.41;10512425;28;20490;-66
2021/06/02 03:09:31;;;;;;;0.00;0.00;;;;;;;7.12;89.05;101970.78;10498469;28;20111;-66
2021/06/02 03:15:09;;;;;;;0.00;0.00;;;;;;;7.22;89.86;101979.81;10511653;28;20111;-66
2021/06/02 03:20:35;;;;;;;0.00;0.00;;;;;;;7.29;89.69;101977.56;10518049;28;20576;-66
2021/06/02 03:26:08;;;;;;;0.00;0.00;;;;;;;7.38;89.54;101984.84;10524730;28;20020;-65
2021/06/02 03:31:30;;;;;;;0.00;0.00;;;;;;;7.49;90.04;101979.63;10510792;28;20020;-66
2021/06/02 03:36:59;;;;;;;0.00;0.00;;;;;;;7.62;89.99;101985.75;10517604;28;20070;-66
2021/06/02 03:42:14;;;;;;;0.00;0.00;;;;;;;7.69;89.80;101984.31;10477570;28;20098;-65
2021/06/02 03:47:37;;;;;;;0.00;0.00;;;;;;;7.86;89.15;101990.19;10513848;28;20069;-66
2021/06/02 03:52:43;;;;;;;0.00;0.00;;;;;;;8.46;87.83;101993.69;10536779;28;20038;-66
2021/06/02 03:57:50;;;;;;;0.00;0.00;;;;;;;8.87;85.83;101993.16;10537054;28;20038;-65
2021/06/02 04:03:03;;;;;;;0.00;0.00;;;;;;;9.43;84.68;101997.66;10513931;28;20110;-67
2021/06/02 04:08:23;;;;;;;0.00;0.00;;;;;;;10.17;81.54;102003.09;10487658;28;20021;-67
2021/06/02 04:13:44;;;;;;;0.00;0.00;;;;;;;10.82;79.42;102001.19;10520250;28;20089;-66
2021/06/02 04:18:48;;;;;;;0.10;0.10;;;;;;;11.91;75.41;102010.28;10525812;28;22065;-66
2021/06/02 04:23:51;;;;;;;0.10;0.10;;;;;;;12.83;72.55;102012.47;10512714;28;20016;-66
2021/06/02 04:28:53;;;;;;;0.00;0.00;;;;;;;13.50;71.08;102008.69;10511470;28;20059;-67
2021/06/02 04:33:56;;;;;;;0.10;0.10;;;;;;;14.10;68.86;101993.91;10509423;28;20352;-67
2021/06/02 04:38:58;;;;;;;0.10;0.10;;;;;;;14.42;67.54;102001.38;10518705;28;20032;-66
2021/06/02 04:43:59;;;;;;;0.10;0.10;;;;;;;13.78;68.89;101997.94;10523688;28;20306;-66
2021/06/02 04:48:59;;;;;;;0.10;0.10;;;;;;;12.99;72.45;102012.69;10529590;28;20048;-67
2021/06/02 04:54:28;;;;;;;0.10;0.10;;;;;;;12.36;75.20;102007.91;10510414;28;20028;-66
2021/06/02 04:59:43;;;;;;;0.10;0.10;;;;;;;12.02;77.18;102023.50;10507838;28;20027;-66
2021/06/02 05:05:22;;;;;;;0.10;0.10;;;;;;;12.15;75.76;102017.88;10509881;28;20050;-66
2021/06/02 05:10:41;;;;;;;0.10;0.10;;;;;;;12.06;76.92;102021.41;10520799;28;20024;-66
2021/06/02 05:16:25;;;;;;;0.10;0.10;;;;;;;12.25;76.64;102032.09;10518914;28;20131;-66
2021/06/02 05:22:06;;;;;;;0.10;0.10;;;;;;;13.42;72.74;102027.34;10519012;22;20036;-68
2021/06/02 05:27:51;;;;;;;0.10;0.10;;;;;;;15.07;66.36;102031.34;10530280;28;20026;-68
2021/06/02 05:33:06;;;;;;;0.10;0.10;;;;;;;15.06;67.49;102037.69;10561267;28;20380;-68
2021/06/02 05:38:26;;;;;;;0.10;0.10;;;;;;;15.24;67.17;102028.72;10553428;28;20474;-68
2021/06/02 05:44:05;;;;;;;0.10;0.10;;;;;;;15.90;64.98;102032.53;10558611;28;20016;-67
2021/06/02 05:49:14;;;;;;;0.10;0.10;;;;;;;16.25;63.54;102037.59;10554947;28;20023;-67
2021/06/02 05:54:46;;;;;;;0.10;0.10;;;;;;;15.80;63.70;102049.63;10543950;28;20032;-67
2021/06/02 06:00:08;;;;;;;0.00;0.00;;;;;;;16.22;65.35;102037.94;10546941;28;20071;-68
2021/06/02 06:05:32;;;;;;;0.10;0.10;;;;;;;16.39;64.77;102028.03;10565994;28;20119;-69
2021/06/02 06:11:25;;;;;;;0.10;0.10;;;;;;;16.37;62.14;102042.66;10543774;28;20031;-68
2021/06/02 06:16:51;;;;;;;0.10;0.10;;;;;;;16.09;64.16;102045.66;10554851;28;20020;-69
2021/06/02 06:22:02;;;;;;;0.10;0.10;;;;;;;16.07;64.86;102051.19;10549914;28;20106;-69
2021/06/02 06:27:13;;;;;;;0.10;0.10;;;;;;;15.31;65.83;102038.69;10555092;28;20020;-69
2021/06/02 06:32:14;;;;;;;0.10;0.10;;;;;;;14.80;67.75;102039.56;10536406;28;20081;-68
2021/06/02 06:37:17;;;;;;;0.00;0.00;;;;;;;15.32;67.06;102037.66;10573182;28;20102;-68
2021/06/02 06:42:24;;;;;;;0.10;0.10;;;;;;;15.86;65.51;102036.56;10555767;28;20579;-69
2021/06/02 06:47:26;;;;;;;0.10;0.10;;;;;;;16.24;63.34;102027.88;10558557;27;20068;-68
2021/06/02 06:52:28;;;;;;;0.10;0.10;;;;;;;16.30;64.23;102024.50;10565454;28;20023;-69
2021/06/02 06:57:29;;;;;;;0.10;0.10;;;;;;;16.10;64.99;102027.69;10557886;28;20096;-68
2021/06/02 07:02:30;;;;;;;0.10;0.10;;;;;;;16.76;62.35;102013.25;10566341;28;20056;-68
2021/06/02 07:07:33;;;;;;;0.10;0.10;;;;;;;17.04;60.96;102015.53;10545537;28;20092;-70
2021/06/02 07:12:37;;;;;;;0.10;0.10;;;;;;;17.04;61.28;102029.81;10568855;28;20106;-68
2021/06/02 07:17:42;;;;;;;;;;;;;;;17.51;61.74;102018.22;10550762;28;20485;-69
2021/06/02 07:22:45;;;;;;;0.10;0.10;;;;;;;17.46;59.99;102009.00;10560329;28;19911;-67
2021/06/02 07:27:47;;;;;;;0.10;0.10;;;;;;;17.53;58.55;102001.88;10579712;28;20027;-68
2021/06/02 07:32:47;;;;;;;0.00;0.00;;;;;;;17.36;58.47;102004.63;10567691;28;20024;-68
2021/06/02 07:37:48;;;;;;;0.10;0.10;;;;;;;17.29;59.03;102013.59;10556049;28;20016;-69
2021/06/02 07:42:48;;;;;;;0.00;0.00;;;;;;;17.60;60.79;102005.53;10558754;28;20470;-68
2021/06/02 07:47:49;;;;;;;0.10;0.10;;;;;;;17.15;56.74;102013.31;10568424;28;20273;-67
2021/06/02 07:52:49;;;;;;;0.10;0.10;;;;;;;16.66;61.61;102020.63;10549396;28;20030;-68
2021/06/02 07:57:54;;;;;;;0.17;0.17;;;;;;;16.76;61.58;102018.63;10570633;28;20020;-68
2021/06/02 08:02:54;;;;;;;0.10;0.10;;;;;;;17.39;58.32;102023.16;10559092;28;20020;-69
2021/06/02 08:07:54;;;;;;;0.10;0.10;;;;;;;18.40;57.20;102007.84;10556700;28;20506;-69
2021/06/02 08:12:54;;;;;;;0.10;0.10;;;;;;;18.04;56.02;102007.66;10548030;27;20392;-69
2021/06/02 08:17:55;;;;;;;0.10;0.10;;;;;;;17.78;57.29;102013.38;10559660;28;20027;-70
2021/06/02 08:22:55;;;;;;;0.10;0.10;;;;;;;17.68;59.37;102013.56;10558125;28;20497;-69
2021/06/02 08:27:55;;;;;;;0.10;0.10;;;;;;;17.47;57.56;102024.97;10557555;28;20428;-70
2021/06/02 08:32:56;;;;;;;0.10;0.10;;;;;;;18.22;57.90;101988.47;10544459;28;20077;-69
2021/06/02 08:37:56;;;;;;;0.10;0.10;;;;;;;18.41;56.89;101990.63;10535317;28;20270;-69
2021/06/02 08:42:57;;;;;;;0.03;0.03;;;;;;;18.51;54.89;101998.50;10547113;28;20110;-69
2021/06/02 08:47:58;;;;;;;0.10;0.10;;;;;;;18.58;53.18;101991.31;10543897;28;20114;-68
2021/06/02 08:53:00;;;;;;;0.10;0.10;;;;;;;18.19;56.93;101992.38;10562487;28;20377;-68
2021/06/02 08:58:00;;;;;;;0.10;0.10;;;;;;;18.48;57.19;101985.38;10551269;28;20032;-69
2021/06/02 09:03:01;;;;;;;0.00;0.00;;;;;;;18.78;56.18;101981.72;10563914;28;20439;-68
2021/06/02 09:08:01;;;;;;;0.10;0.10;;;;;;;19.19;55.53;101985.78;10558160;28;20522;-68
2021/06/02 09:13:02;;;;;;;0.10;0.10;;;;;;;18.69;53.78;101979.25;10528083;27;20436;-69
2021/06/02 09:18:04;;;;;;;0.10;0.10;;;;;;;18.66;55.57;101979.63;10569840;28;20027;-68
2021/06/02 09:23:35;;;;;;;0.10;0.10;;;;;;;18.98;59.26;101986.56;10568540;28;20110;-70
2021/06/02 09:28:44;;;;;;;0.08;0.08;;;;;;;18.84;55.35;101980.13;10556102;28;20107;-70
2021/06/02 09:33:45;;;;;;;0.10;0.10;;;;;;;19.52;54.74;101985.34;10548533;27;20020;-68
2021/06/02 09:38:52;;;;;;;0.10;0.10;;;;;;;19.34;53.54;101977.66;10549270;28;20027;-69
2021/06/02 09:43:52;;;;;;;0.10;0.10;;;;;;;18.97;57.48;101985.72;10537502;28;20018;-70
2021/06/02 09:49:01;;;;;;;0.10;0.10;;;;;;;19.20;58.53;101979.38;10523855;28;20031;-70
2021/06/02 09:54:07;;;;;;;0.10;0.10;;;;;;;19.58;55.66;101971.94;10530215;28;20027;-69
2021/06/02 09:59:09;;;;;;;0.10;0.10;;;;;;;19.81;57.67;101985.31;10555687;28;20020;-69
2021/06/02 10:04:13;;;;;;;0.00;0.00;;;;;;;20.19;56.52;101960.72;10555275;28;20042;-69
2021/06/02 10:09:13;;;;;;;;;;;;;;;19.89;52.38;101977.06;10559257;28;20024;-68
2021/06/02 10:14:14;;;;;;;0.10;0.10;;;;;;;19.18;56.10;101976.84;10529209;28;19942;-69
2021/06/02 10:19:15;;;;;;;0.10;0.10;;;;;;;18.96;57.00;101967.81;10555728;28;20026;-68
2021/06/02 10:24:15;;;;;;;0.10;0.10;;;;;;;19.39;52.95;101965.28;10558841;28;20031;-69
2021/06/02 10:29:16;;;;;;;0.10;0.10;;;;;;;19.58;56.84;101960.31;10540798;28;20300;-68
2021/06/02 10:34:16;;;;;;;0.10;0.10;;;;;;;19.14;56.51;101953.09;10537775;28;20020;-69
2021/06/02 10:39:19;;;;;;;0.10;0.10;;;;;;;19.31;59.61;101951.88;10549705;28;20028;-68
2021/06/02 10:44:25;;;;;;;0.10;0.10;;;;;;;19.53;57.96;101957.31;10572347;28;20344;-69
2021/06/02 10:49:28;;;;;;;0.10;0.10;;;;;;;19.73;57.12;101947.59;10574659;28;20028;-69
2021/06/02 10:54:38;;;;;;;0.10;0.10;;;;;;;19.87;56.61;101952.09;10569331;28;20489;-68
2021/06/02 10:59:40;;;;;;;0.10;0.10;;;;;;;20.03;55.45;101936.63;10562030;28;20027;-69
2021/06/02 11:05:04;;;;;;;0.10;0.10;;;;;;;20.23;51.06;101934.09;10539471;28;20064;-69
2021/06/02 11:10:04;;;;;;;0.00;0.00;;;;;;;20.46;51.92;101942.81;10546094;28;20103;-69
2021/06/02 11:15:21;;;;;;;0.10;0.10;;;;;;;20.53;52.08;101943.72;10544613;28;20035;-68
2021/06/02 11:20:38;;;;;;;0.10;0.10;;;;;;;20.43;57.08;101928.84;10550528;28;20278;-69
2021/06/02 11:25:40;;;;;;;0.10;0.10;;;;;;;19.97;54.12;101930.13;10591677;22;20109;-67
2021/06/02 11:30:40;;;;;;;0.10;0.10;;;;;;;20.41;53.31;101941.72;10539620;28;20025;-66
2021/06/02 11:35:55;;;;;;;0.10;0.10;;;;;;;20.35;51.01;101941.47;10515230;28;20036;-66
2021/06/02 11:40:55;;;;;;;0.10;0.10;;;;;;;20.39;53.39;101938.38;10503340;28;20016;-66
2021/06/02 11:45:59;;;;;;;0.10;0.10;;;;;;;20.58;50.57;101943.13;10494743;28;20024;-67
2021/06/02 11:51:02;;;;;;;;;;;;;;;20.37;52.80;101949.41;10510843;28;20484;-67
2021/06/02 11:56:03;;;;;;;0.10;0.10;;;;;;;20.42;53.06;101946.94;10537094;28;20351;-66
2021/06/02 12:01:04;;;;;;;0.10;0.10;;;;;;;21.16;49.62;101940.09;10508134;28;20020;-66
2021/06/02 12:06:04;;;;;;;0.10;0.10;;;;;;;21.45;46.91;101939.81;10511264;28;20024;-67
2021/06/02 12:11:09;;;;;;;0.10;0.10;;;;;;;21.42;48.54;101937.50;10475863;28;20495;-67
2021/06/02 12:16:12;;;;;;;0.10;0.10;;;;;;;21.78;53.45;101922.75;10494902;28;20027;-67
2021/06/02 12:21:21;;;;;;;0.10;0.10;;;;;;;21.72;52.12;101922.75;10503763;28;20028;-66
2021/06/02 12:26:30;;;;;;;0.00;0.00;;;;;;;21.59;50.42;101927.13;10529754;28;20269;-66
2021/06/02 12:31:43;;;;;;;0.10;0.10;;;;;;;21.62;47.87;101921.28;10483206;28;20043;-67
2021/06/02 12:36:51;;;;;;;0.10;0.10;;;;;;;21.70;48.30;101926.53;10499005;28;20024;-67
2021/06/02 12:41:52;;;;;;;0.10;0.10;;;;;;;21.62;50.31;101924.00;10517189;28;20070;-67
2021/06/02 12:47:05;;;;;;;0.10;0.10;;;;;;;21.64;48.77;101913.81;10493361;28;20082;-63
2021/06/02 12:52:05;;;;;;;0.10;0.10;;;;;;;21.76;49.55;101911.31;10500759;28;20039;-66
2021/06/02 12:57:06;;;;;;;0.10;0.10;;;;;;;21.79;51.68;101913.59;10531461;28;20375;-63
2021/06/02 13:02:12;;;;;;;0.10;0.10;;;;;;;21.91;50.01;101914.66;10531819;28;20016;-64
2021/06/02 13:07:13;;;;;;;0.10;0.10;;;;;;;21.79;50.50;101907.34;10521678;28;20469;-64
2021/06/02 13:12:19;;;;;;;0.10;0.10;;;;;;;21.95;51.94;101912.34;10531006;28;20088;-64
2021/06/02 13:17:37;;;;;;;0.10;0.10;;;;;;;22.18;50.51;101909.25;10505577;28;20274;-64
2021/06/02 13:22:37;;;;;;;0.10;0.10;;;;;;;21.93;51.15;101898.16;10513081;28;20047;-64
2021/06/02 13:27:37;;;;;;;0.10;0.10;;;;;;;22.28;49.01;101895.25;10530127;28;20062;-64
2021/06/02 13:32:38;;;;;;;0.10;0.10;;;;;;;22.24;49.50;101896.72;10500825;28;20043;-64
2021/06/02 13:37:43;;;;;;;0.10;0.10;;;;;;;22.08;51.04;101901.50;10516848;28;20096;-63
2021/06/02 13:43:03;;;;;;;0.10;0.10;;;;;;;21.99;50.25;101889.22;10526388;28;20027;-64
2021/06/02 13:48:22;;;;;;;0.10;0.10;;;;;;;22.22;52.09;101893.38;10513847;28;20028;-64
2021/06/02 13:53:22;;;;;;;0.03;0.03;;;;;;;22.50;54.95;101877.66;10511580;28;20100;-64
2021/06/02 13:58:23;;;;;;;0.05;0.05;;;;;;;22.71;53.02;101873.00;10531651;28;20097;-64
2021/06/02 14:03:23;;;;;;;0.10;0.10;;;;;;;22.96;46.85;101876.69;10531083;28;20098;-64
2021/06/02 14:08:23;;;;;;;0.10;0.10;;;;;;;23.00;47.05;101875.22;10531560;28;20020;-64
2021/06/02 14:13:24;;;;;;;0.10;0.10;;;;;;;23.04;46.76;101870.19;10530716;28;20108;-64
2021/06/02 14:18:24;;;;;;;0.10;0.10;;;;;;;23.24;47.70;101873.63;10531179;28;20573;-64
2021/06/02 14:23:24;;;;;;;0.10;0.10;;;;;;;23.18;47.14;101877.19;10528536;28;20328;-64
2021/06/02 14:28:24;;;;;;;0.10;0.10;;;;;;;23.12;48.31;101869.91;10529621;28;20535;-64
2021/06/02 14:33:25;;;;;;;0.10;0.10;;;;;;;22.91;48.44;101870.22;10531302;28;20080;-64
2021/06/02 14:38:25;;;;;;;0.10;0.10;;;;;;;22.98;49.36;101866.47;10531984;28;20020;-64
2021/06/02 14:43:26;;;;;;;0.10;0.10;;;;;;;23.07;49.11;101866.19;10528875;28;20111;-64
2021/06/02 14:48:26;;;;;;;0.10;0.10;;;;;;;23.13;47.81;101862.63;10530752;28;20419;-64
2021/06/02 14:53:28;;;;;;;0.10;0.10;;;;;;;23.27;47.55;101856.03;10530108;28;20032;-64
2021/06/02 14:58:28;;;;;;;0.10;0.10;;;;;;;23.22;47.89;101867.56;10531548;28;20086;-64
2021/06/02 15:03:28;;;;;;;0.10;0.10;;;;;;;23.19;45.83;101861.75;10537899;28;20020;-65
2021/06/02 15:08:30;;;;;;;0.10;0.10;;;;;;;23.31;46.16;101867.31;10538412;28;20250;-64
2021/06/02 15:13:30;;;;;;;0.10;0.10;;;;;;;23.38;45.68;101859.94;10516258;28;20382;-64
2021/06/02 15:18:32;;;;;;;0.00;0.00;;;;;;;23.45;47.54;101864.28;10536158;28;20030;-63
2021/06/02 15:23:32;;;;;;;0.10;0.10;;;;;;;23.47;46.74;101861.34;10577428;28;20107;-64
2021/06/02 15:28:42;;;;;;;0.10;0.10;;;;;;;23.55;48.13;101857.53;10579442;28;20115;-65
2021/06/02 15:33:42;;;;;;;0.10;0.10;;;;;;;23.59;47.58;101861.47;10579278;28;20095;-64
2021/06/02 15:38:43;;;;;;;0.10;0.10;;;;;;;23.46;47.41;101860.50;10579090;28;20416;-64
2021/06/02 15:43:43;;;;;;;0.10;0.10;;;;;;;23.30;47.83;101858.34;10578235;28;20027;-64
2021/06/02 15:48:43;;;;;;;0.10;0.10;;;;;;;23.36;45.30;101857.47;10546858;28;20074;-65
2021/06/02 15:53:48;;;;;;;0.10;0.10;;;;;;;23.36;46.12;101857.47;10535663;28;20038;-64
2021/06/02 15:58:49;;;;;;;0.10;0.10;;;;;;;23.44;45.37;101846.28;10536078;28;20028;-64
2021/06/02 16:03:50;;;;;;;0.10;0.10;;;;;;;23.53;48.00;101846.03;10517565;28;20024;-61
2021/06/02 16:08:50;;;;;;;0.10;0.10;;;;;;;23.58;49.67;101851.66;10535612;28;20031;-61
2021/06/02 16:13:51;;;;;;;0.10;0.10;;;;;;;23.57;46.53;101848.09;10535182;28;20028;-64
2021/06/02 16:18:51;;;;;;;0.10;0.10;;;;;;;23.56;47.35;101834.72;10509706;28;20032;-63
2021/06/02 16:23:51;;;;;;;0.10;0.10;;;;;;;23.35;48.54;101852.22;10535077;28;20016;-63
2021/06/02 16:28:53;;;;;;;0.10;0.10;;;;;;;23.14;48.67;101837.09;10535129;28;20031;-65
2021/06/02 16:34:00;;;;;;;0.10;0.10;;;;;;;23.03;49.39;101834.00;10534311;28;20446;-63
2021/06/02 16:39:01;;;;;;;0.10;0.10;;;;;;;23.07;48.26;101833.56;10534726;28;20054;-64
2021/06/02 16:44:02;;;;;;;0.10;0.10;;;;;;;23.09;49.39;101840.47;10536728;28;20145;-64
2021/06/02 16:49:02;;;;;;;0.10;0.10;;;;;;;23.08;50.18;101832.53;10544270;28;20605;-64
2021/06/02 16:54:06;;;;;;;0.10;0.10;;;;;;;22.93;51.96;101833.63;10533780;28;20365;-64
2021/06/02 16:59:08;;;;;;;0.10;0.10;;;;;;;22.72;50.71;101842.94;10533768;28;20286;-65
2021/06/02 17:04:09;;;;;;;0.10;0.10;;;;;;;22.57;51.47;101834.19;10533435;28;20024;-64
2021/06/02 17:09:10;;;;;;;0.10;0.10;;;;;;;22.43;54.20;101843.44;10533586;28;20482;-64
2021/06/02 17:14:15;;;;;;;0.10;0.10;;;;;;;22.33;55.41;101838.44;10514863;28;20023;-63
2021/06/02 17:19:22;;;;;;;0.10;0.10;;;;;;;22.23;54.98;101840.78;10532123;28;20020;-63
2021/06/02 17:24:23;;;;;;;0.10;0.10;;;;;;;22.19;55.11;101840.34;10557713;22;20097;-66
2021/06/02 17:29:27;;;;;;;0.10;0.10;;;;;;;22.13;55.11;101850.13;10535716;28;20032;-67
2021/06/02 17:34:28;;;;;;;0.10;0.10;;;;;;;21.92;53.96;101850.38;10534609;28;20028;-67
2021/06/02 17:39:29;;;;;;;0.10;0.10;;;;;;;21.82;55.61;101847.28;10535042;28;20066;-67
2021/06/02 17:44:29;;;;;;;0.10;0.10;;;;;;;21.74;55.42;101856.44;10534479;28;20031;-66
2021/06/02 17:49:32;;;;;;;0.10;0.10;;;;;;;21.80;55.69;101854.78;10534646;28;20034;-66
2021/06/02 17:54:32;;;;;;;0.00;0.00;;;;;;;21.80;57.05;101855.59;10580790;27;20071;-66
2021/06/02 17:59:36;;;;;;;0.10;0.10;;;;;;;21.72;55.81;101853.09;10618819;27;20079;-66
2021/06/02 18:04:36;;;;;;;0.10;0.10;;;;;;;21.56;55.39;101848.94;10600530;27;20043;-67
2021/06/02 18:09:36;;;;;;;0.10;0.10;;;;;;;21.31;56.64;101856.75;10600418;27;20054;-67
2021/06/02 18:14:37;;;;;;;0.10;0.10;;;;;;;20.98;58.56;101856.69;10618348;27;20275;-66
2021/06/02 18:19:38;;;;;;;0.10;0.10;;;;;;;20.72;57.91;101858.25;10618128;28;20027;-66
2021/06/02 18:24:39;;;;;;;0.10;0.10;;;;;;;20.52;59.11;101868.97;10588113;28;20261;-66
2021/06/02 18:29:40;;;;;;;0.10;0.10;;;;;;;20.33;59.42;101870.50;10577659;28;20028;-66
2021/06/02 18:34:40;;;;;;;0.10;0.10;;;;;;;20.27;60.24;101871.28;10583671;28;20027;-66
2021/06/02 18:39:44;;;;;;;0.10;0.10;;;;;;;20.22;60.19;101875.63;10584455;28;20446;-66
2021/06/02 18:44:44;;;;;;;0.10;0.10;;;;;;;20.07;60.86;101870.28;10552149;28;20508;-66
2021/06/02 18:49:45;;;;;;;0.10;0.10;;;;;;;19.95;61.47;101871.88;10581988;28;20102;-66
2021/06/02 18:54:46;;;;;;;0.10;0.10;;;;;;;19.81;61.94;101881.72;10545630;28;20719;-65
2021/06/02 18:59:46;;;;;;;0.10;0.10;;;;;;;19.66;62.58;101888.06;10539568;28;20024;-66
2021/06/02 19:04:47;;;;;;;0.10;0.10;;;;;;;19.56;62.76;101886.69;10539256;28;20028;-66
2021/06/02 19:09:48;;;;;;;0.10;0.10;;;;;;;19.50;62.66;101887.47;10538958;28;20049;-65
2021/06/02 19:14:48;;;;;;;0.10;0.10;;;;;;;19.34;63.70;101886.66;10561358;28;20023;-66
2021/06/02 19:19:49;;;;;;;0.10;0.10;;;;;;;19.16;64.26;101889.78;10575575;28;20481;-66
2021/06/02 19:24:49;;;;;;;0.10;0.10;;;;;;;18.98;64.53;101900.16;10562206;28;20634;-65
2021/06/02 19:29:49;;;;;;;0.10;0.10;;;;;;;18.84;64.69;101906.41;10572085;28;20386;-66
2021/06/02 19:34:50;;;;;;;0.10;0.10;;;;;;;18.74;64.61;101917.50;10538174;28;20483;-65
2021/06/02 19:39:50;;;;;;;0.10;0.10;;;;;;;18.63;65.01;101916.06;10538417;28;20027;-65
2021/06/02 19:44:50;;;;;;;0.10;0.10;;;;;;;18.48;64.90;101928.72;10537004;28;20034;-66
2021/06/02 19:49:51;;;;;;;0.10;0.10;;;;;;;18.35;65.66;101932.03;10537412;28;20020;-66
2021/06/02 19:54:51;;;;;;;0.10;0.10;;;;;;;18.22;65.67;101938.06;10547880;27;20261;-65
2021/06/02 19:59:51;;;;;;;0.10;0.10;;;;;;;18.05;66.32;101941.91;10536973;28;20020;-64
2021/06/02 20:04:55;;;;;;;0.10;0.10;;;;;;;17.87;66.80;101948.47;10536742;28;20294;-64
2021/06/02 20:09:55;;;;;;;0.10;0.10;;;;;;;17.75;67.04;101954.44;10536589;28;20019;-65
2021/06/02 20:14:55;;;;;;;0.10;0.10;;;;;;;17.69;67.80;101952.44;10565000;28;20316;-67
2021/06/02 20:19:55;;;;;;;0.10;0.10;;;;;;;17.60;67.72;101957.88;10578253;28;20138;-65
2021/06/02 20:24:56;;;;;;;0.10;0.10;;;;;;;17.48;68.44;101959.28;10558645;28;20035;-65
2021/06/02 20:30:03;;;;;;;0.10;0.10;;;;;;;17.36;68.65;101955.31;10556675;28;20084;-68
2021/06/02 20:35:08;;;;;;;0.10;0.10;;;;;;;17.25;69.23;101969.16;10559056;28;20420;-66
2021/06/02 20:40:14;;;;;;;0.10;0.10;;;;;;;17.11;69.41;101965.38;10558703;28;20016;-67
2021/06/02 20:45:15;;;;;;;0.10;0.10;;;;;;;17.08;69.23;101966.56;10577471;28;20015;-67
2021/06/02 20:50:17;;;;;;;0.10;0.10;;;;;;;17.11;69.02;101973.47;10576504;28;20024;-66
2021/06/02 20:55:18;;;;;;;0.10;0.10;;;;;;;17.13;68.84;101971.41;10567958;28;20106;-65
2021/06/02 21:00:22;;;;;;;0.10;0.10;;;;;;;17.19;68.65;101976.09;10575938;28;20379;-66
2021/06/02 21:05:23;;;;;;;0.10;0.10;;;;;;;17.18;68.21;101986.03;10577279;28;20531;-65
2021/06/02 21:10:24;;;;;;;0.10;0.10;;;;;;;17.20;67.85;101989.41;10516382;28;20081;-66
2021/06/02 21:15:24;;;;;;;0.10;0.10;;;;;;;17.22;67.98;101988.38;10534228;28;20070;-66
2021/06/02 21:20:26;;;;;;;0.10;0.10;;;;;;;17.24;67.84;101997.13;10518613;28;20040;-66
2021/06/02 21:25:28;;;;;;;0.10;0.10;;;;;;;17.34;66.99;102001.28;10556244;28;20028;-67
2021/06/02 21:30:28;;;;;;;0.10;0.10;;;;;;;17.46;66.55;102011.69;10533391;28;20020;-66
2021/06/02 21:35:28;;;;;;;0.10;0.10;;;;;;;17.62;65.32;102003.50;10515728;28;20474;-67
2021/06/02 21:40:29;;;;;;;0.10;0.10;;;;;;;17.81;64.22;102007.63;10536838;28;20024;-66
2021/06/02 21:45:29;;;;;;;0.10;0.10;;;;;;;17.96;63.72;102000.47;10575320;28;20023;-66
2021/06/02 21:50:29;;;;;;;0.10;0.10;;;;;;;18.19;62.27;102005.84;10574913;28;20026;-67
2021/06/02 21:55:30;;;;;;;0.10;0.10;;;;;;;18.36;61.23;102006.56;10561489;28;20035;-66
2021/06/02 22:00:39;;;;;;;0.10;0.10;;;;;;;18.55;60.46;102002.50;10565911;28;20019;-66
2021/06/02 22:05:40;;;;;;;0.10;0.10;;;;;;;18.78;60.68;101999.75;10574348;28;20398;-67
2021/06/02 22:10:41;;;;;;;0.10;0.10;;;;;;;18.86;59.28;101999.69;10573856;28;20015;-66
2021/06/02 22:15:44;;;;;;;0.00;0.00;;;;;;;18.90;59.37;101998.28;10574085;28;20039;-66
2021/06/02 22:20:46;;;;;;;0.00;0.00;;;;;;;18.94;58.23;102005.00;10547859;28;20479;-65
2021/06/02 22:25:47;;;;;;;0.10;0.10;;;;;;;18.87;58.37;102006.75;10553244;28;20061;-66
2021/06/02 22:30:47;;;;;;;0.10;0.10;;;;;;;18.82;58.64;102011.88;10556398;28;20514;-67
2021/06/02 22:35:48;;;;;;;0.10;0.10;;;;;;;18.86;57.84;101998.84;10571530;28;20055;-66
2021/06/02 22:40:48;;;;;;;0.10;0.10;;;;;;;18.85;58.63;102014.22;10565980;28;20111;-65
2021/06/02 22:45:48;;;;;;;0.10;0.10;;;;;;;18.87;57.87;102000.50;10562232;28;20085;-65
2021/06/02 22:50:49;;;;;;;0.10;0.10;;;;;;;18.81;58.06;101998.56;10574023;28;20039;-65
2021/06/02 22:55:49;;;;;;;0.10;0.10;;;;;;;18.76;57.96;102001.81;10533737;28;20038;-66
2021/06/02 23:00:50;;;;;;;0.10;0.10;;;;;;;18.72;58.36;102004.00;10536701;28;20028;-66
2021/06/02 23:05:50;;;;;;;0.10;0.10;;;;;;;18.66;58.95;102002.03;10531675;28;20024;-66
2021/06/02 23:10:53;;;;;;;0.10;0.10;;;;;;;18.58;58.76;102010.22;10513098;28;20043;-65
2021/06/02 23:15:54;;;;;;;0.10;0.10;;;;;;;18.50;58.64;101997.66;10531953;28;20055;-65
2021/06/02 23:20:54;;;;;;;0.10;0.10;;;;;;;18.46;59.05;102004.44;10528876;27;20039;-65
2021/06/02 23:25:55;;;;;;;0.10;0.10;;;;;;;18.37;59.06;102008.22;10565159;22;20395;-63
2021/06/02 23:30:55;;;;;;;0.10;0.10;;;;;;;18.36;59.25;102011.13;10494766;28;20024;-63